Weather at Metropolitan Oakland International Airport

Public forecast

Using degrees Fahrenheit for public forecast. Weather courtesy of forecast.io.

Current aviation weather report (METAR) for Metropolitan Oakland International Airport

Retrieved 2021/10/26 04:53 UTC (10 minutes ago):

KOAK 260453Z 27008KT 10SM FEW013 14/11 A3003 RMK AO2 SLP168 T01440111

Aviation forecast (TAF) for Metropolitan Oakland International Airport

Retrieved 2021-10-26 00:39 UTC (4 hours ago):

TAF KOAK 252337Z 2600/2706 28015KT P6SM VCSH FEW015 SCT030 OVC050 FM260300 26005KT P6SM FEW015 SCT050 FM260900 25004KT P6SM FEW015 SCT050 FM261500 VRB05KT P6SM FEW015 BKN050 FM262100 17009KT P6SM VCSH FEW015 BKN030 FM270200 23005KT P6SM FEW020 SCT050